sensor_id;sensor_type;location;lat;lon;timestamp;temperature;humidity
23063;DHT22;11699;43.704;10.430;2023-07-30T00:02:18;23.70;99.90
23063;DHT22;11699;43.704;10.430;2023-07-30T00:04:45;23.60;99.90
23063;DHT22;11699;43.704;10.430;2023-07-30T00:07:13;23.60;99.90
23063;DHT22;11699;43.704;10.430;2023-07-30T00:09:41;23.60;99.90
23063;DHT22;11699;43.704;10.430;2023-07-30T00:12:09;23.40;99.90
23063;DHT22;11699;43.704;10.430;2023-07-30T00:14:37;23.40;99.90
23063;DHT22;11699;43.704;10.430;2023-07-30T00:17:04;23.40;99.90
23063;DHT22;11699;43.704;10.430;2023-07-30T00:19:31;23.50;99.90
23063;DHT22;11699;43.704;10.430;2023-07-30T00:21:59;23.60;99.90
23063;DHT22;11699;43.704;10.430;2023-07-30T00:24:26;23.50;99.90
23063;DHT22;11699;43.704;10.430;2023-07-30T00:26:54;23.50;99.90
23063;DHT22;11699;43.704;10.430;2023-07-30T00:29:21;23.50;99.90
23063;DHT22;11699;43.704;10.430;2023-07-30T00:31:48;23.30;99.90
23063;DHT22;11699;43.704;10.430;2023-07-30T00:34:15;23.20;99.90
23063;DHT22;11699;43.704;10.430;2023-07-30T00:36:42;23.10;99.90
23063;DHT22;11699;43.704;10.430;2023-07-30T00:39:09;23.10;99.90
23063;DHT22;11699;43.704;10.430;2023-07-30T00:41:38;22.90;99.90
23063;DHT22;11699;43.704;10.430;2023-07-30T00:44:06;22.90;99.90
23063;DHT22;11699;43.704;10.430;2023-07-30T00:46:34;22.90;99.90
23063;DHT22;11699;43.704;10.430;2023-07-30T00:49:02;22.90;99.90
23063;DHT22;11699;43.704;10.430;2023-07-30T00:51:31;23.00;99.90
23063;DHT22;11699;43.704;10.430;2023-07-30T00:53:59;23.10;99.90
23063;DHT22;11699;43.704;10.430;2023-07-30T00:56:26;23.10;99.90
23063;DHT22;11699;43.704;10.430;2023-07-30T00:58:54;23.00;99.90
23063;DHT22;11699;43.704;10.430;2023-07-30T01:01:23;22.80;99.90
23063;DHT22;11699;43.704;10.430;2023-07-30T01:03:51;22.70;99.90
23063;DHT22;11699;43.704;10.430;2023-07-30T01:06:18;22.80;99.90
23063;DHT22;11699;43.704;10.430;2023-07-30T01:08:47;22.80;99.90
23063;DHT22;11699;43.704;10.430;2023-07-30T01:11:15;22.90;99.90
23063;DHT22;11699;43.704;10.430;2023-07-30T01:13:42;22.90;99.90
23063;DHT22;11699;43.704;10.430;2023-07-30T01:16:10;22.90;99.90
23063;DHT22;11699;43.704;10.430;2023-07-30T01:18:39;22.80;99.90
23063;DHT22;11699;43.704;10.430;2023-07-30T01:21:08;22.80;99.90
23063;DHT22;11699;43.704;10.430;2023-07-30T01:23:35;22.80;99.90
23063;DHT22;11699;43.704;10.430;2023-07-30T01:26:06;22.90;99.90
23063;DHT22;11699;43.704;10.430;2023-07-30T01:28:37;22.90;99.90
23063;DHT22;11699;43.704;10.430;2023-07-30T01:31:06;23.00;99.90
23063;DHT22;11699;43.704;10.430;2023-07-30T01:33:35;23.00;99.90
23063;DHT22;11699;43.704;10.430;2023-07-30T01:36:04;22.90;99.90
23063;DHT22;11699;43.704;10.430;2023-07-30T01:38:33;22.90;99.90
23063;DHT22;11699;43.704;10.430;2023-07-30T01:41:00;22.90;99.90
23063;DHT22;11699;43.704;10.430;2023-07-30T01:43:27;22.90;99.90
23063;DHT22;11699;43.704;10.430;2023-07-30T01:45:54;22.90;99.90
23063;DHT22;11699;43.704;10.430;2023-07-30T01:48:22;22.80;99.90
23063;DHT22;11699;43.704;10.430;2023-07-30T01:50:49;22.90;99.90
23063;DHT22;11699;43.704;10.430;2023-07-30T01:53:16;22.90;99.90
23063;DHT22;11699;43.704;10.430;2023-07-30T01:55:45;23.00;99.90
23063;DHT22;11699;43.704;10.430;2023-07-30T01:58:13;23.00;99.90
23063;DHT22;11699;43.704;10.430;2023-07-30T02:00:40;23.00;99.90
23063;DHT22;11699;43.704;10.430;2023-07-30T02:03:07;22.90;99.90
23063;DHT22;11699;43.704;10.430;2023-07-30T02:05:35;22.80;99.90
23063;DHT22;11699;43.704;10.430;2023-07-30T02:08:02;22.70;99.90
23063;DHT22;11699;43.704;10.430;2023-07-30T02:10:29;22.60;99.90
23063;DHT22;11699;43.704;10.430;2023-07-30T02:12:58;22.60;99.90
23063;DHT22;11699;43.704;10.430;2023-07-30T02:15:25;22.60;99.90
23063;DHT22;11699;43.704;10.430;2023-07-30T02:17:52;22.60;99.90
23063;DHT22;11699;43.704;10.430;2023-07-30T02:20:19;22.60;99.90
23063;DHT22;11699;43.704;10.430;2023-07-30T02:22:47;22.70;99.90
23063;DHT22;11699;43.704;10.430;2023-07-30T02:25:14;22.70;99.90
23063;DHT22;11699;43.704;10.430;2023-07-30T02:27:41;22.70;99.90
23063;DHT22;11699;43.704;10.430;2023-07-30T02:30:10;22.70;99.90
23063;DHT22;11699;43.704;10.430;2023-07-30T02:32:37;22.70;99.90
23063;DHT22;11699;43.704;10.430;2023-07-30T02:35:05;22.70;99.90
23063;DHT22;11699;43.704;10.430;2023-07-30T02:37:32;22.70;99.90
23063;DHT22;11699;43.704;10.430;2023-07-30T02:40:00;22.60;99.90
23063;DHT22;11699;43.704;10.430;2023-07-30T02:42:30;22.60;99.90
23063;DHT22;11699;43.704;10.430;2023-07-30T02:44:57;22.50;99.90
23063;DHT22;11699;43.704;10.430;2023-07-30T02:47:26;22.40;99.90
23063;DHT22;11699;43.704;10.430;2023-07-30T02:49:53;22.50;99.90
23063;DHT22;11699;43.704;10.430;2023-07-30T02:52:20;22.60;99.90
23063;DHT22;11699;43.704;10.430;2023-07-30T02:54:47;22.60;99.90
23063;DHT22;11699;43.704;10.430;2023-07-30T02:57:14;22.70;99.90
23063;DHT22;11699;43.704;10.430;2023-07-30T02:59:42;22.60;99.90
23063;DHT22;11699;43.704;10.430;2023-07-30T03:02:09;22.60;99.90
23063;DHT22;11699;43.704;10.430;2023-07-30T03:04:37;22.50;99.90
23063;DHT22;11699;43.704;10.430;2023-07-30T03:07:05;22.60;99.90
23063;DHT22;11699;43.704;10.430;2023-07-30T03:09:32;22.60;99.90
23063;DHT22;11699;43.704;10.430;2023-07-30T03:12:00;22.50;99.90
23063;DHT22;11699;43.704;10.430;2023-07-30T03:14:27;22.50;99.90
23063;DHT22;11699;43.704;10.430;2023-07-30T03:16:54;22.50;99.90
23063;DHT22;11699;43.704;10.430;2023-07-30T03:19:21;22.40;99.90
23063;DHT22;11699;43.704;10.430;2023-07-30T03:21:49;22.40;99.90
23063;DHT22;11699;43.704;10.430;2023-07-30T03:24:17;22.40;99.90
23063;DHT22;11699;43.704;10.430;2023-07-30T03:26:44;22.40;99.90
23063;DHT22;11699;43.704;10.430;2023-07-30T03:29:11;22.30;99.90
23063;DHT22;11699;43.704;10.430;2023-07-30T03:31:38;22.40;99.90
23063;DHT22;11699;43.704;10.430;2023-07-30T03:34:06;22.50;99.90
23063;DHT22;11699;43.704;10.430;2023-07-30T03:36:33;22.50;99.90
23063;DHT22;11699;43.704;10.430;2023-07-30T03:39:01;22.50;99.90
23063;DHT22;11699;43.704;10.430;2023-07-30T03:41:28;22.40;99.90
23063;DHT22;11699;43.704;10.430;2023-07-30T03:43:55;22.30;99.90
23063;DHT22;11699;43.704;10.430;2023-07-30T03:46:23;22.30;99.90
23063;DHT22;11699;43.704;10.430;2023-07-30T03:48:50;22.40;99.90
23063;DHT22;11699;43.704;10.430;2023-07-30T03:51:17;22.40;99.90
23063;DHT22;11699;43.704;10.430;2023-07-30T03:53:44;22.30;99.90
23063;DHT22;11699;43.704;10.430;2023-07-30T03:56:13;22.30;99.90
23063;DHT22;11699;43.704;10.430;2023-07-30T03:58:40;22.30;99.90
23063;DHT22;11699;43.704;10.430;2023-07-30T04:01:07;22.30;99.90
23063;DHT22;11699;43.704;10.430;2023-07-30T04:03:34;22.20;99.90
23063;DHT22;11699;43.704;10.430;2023-07-30T04:06:02;22.10;99.90
23063;DHT22;11699;43.704;10.430;2023-07-30T04:08:29;22.10;99.90
23063;DHT22;11699;43.704;10.430;2023-07-30T04:10:56;22.10;99.90
23063;DHT22;11699;43.704;10.430;2023-07-30T04:13:25;22.10;99.90
23063;DHT22;11699;43.704;10.430;2023-07-30T04:15:52;22.10;99.90
23063;DHT22;11699;43.704;10.430;2023-07-30T04:18:19;22.00;99.90
23063;DHT22;11699;43.704;10.430;2023-07-30T04:20:48;22.00;99.90
23063;DHT22;11699;43.704;10.430;2023-07-30T04:23:15;22.00;99.90
23063;DHT22;11699;43.704;10.430;2023-07-30T04:25:42;22.00;99.90
23063;DHT22;11699;43.704;10.430;2023-07-30T04:28:09;22.10;99.90
23063;DHT22;11699;43.704;10.430;2023-07-30T04:30:38;22.10;99.90
23063;DHT22;11699;43.704;10.430;2023-07-30T04:33:05;22.10;99.90
23063;DHT22;11699;43.704;10.430;2023-07-30T04:35:32;22.10;99.90
23063;DHT22;11699;43.704;10.430;2023-07-30T04:37:59;22.20;99.90
23063;DHT22;11699;43.704;10.430;2023-07-30T04:40:26;22.20;99.90
23063;DHT22;11699;43.704;10.430;2023-07-30T04:42:53;22.20;99.90
23063;DHT22;11699;43.704;10.430;2023-07-30T04:45:21;22.40;99.90
23063;DHT22;11699;43.704;10.430;2023-07-30T04:47:49;22.40;99.90
23063;DHT22;11699;43.704;10.430;2023-07-30T04:50:17;22.40;99.90
23063;DHT22;11699;43.704;10.430;2023-07-30T04:52:44;22.50;99.90
23063;DHT22;11699;43.704;10.430;2023-07-30T04:55:11;22.40;99.90
23063;DHT22;11699;43.704;10.430;2023-07-30T04:57:38;22.40;99.90
23063;DHT22;11699;43.704;10.430;2023-07-30T05:00:07;22.30;99.90
23063;DHT22;11699;43.704;10.430;2023-07-30T05:02:34;22.30;99.90
23063;DHT22;11699;43.704;10.430;2023-07-30T05:05:02;22.20;99.90
23063;DHT22;11699;43.704;10.430;2023-07-30T05:07:30;22.30;99.90
23063;DHT22;11699;43.704;10.430;2023-07-30T05:09:57;22.50;99.90
23063;DHT22;11699;43.704;10.430;2023-07-30T05:12:24;22.50;99.90
23063;DHT22;11699;43.704;10.430;2023-07-30T05:14:52;22.60;99.90
23063;DHT22;11699;43.704;10.430;2023-07-30T05:17:19;22.70;99.90
23063;DHT22;11699;43.704;10.430;2023-07-30T05:19:46;22.80;99.90
23063;DHT22;11699;43.704;10.430;2023-07-30T05:22:15;22.90;99.90
23063;DHT22;11699;43.704;10.430;2023-07-30T05:24:42;22.90;99.90
23063;DHT22;11699;43.704;10.430;2023-07-30T05:27:09;23.00;99.90
23063;DHT22;11699;43.704;10.430;2023-07-30T05:29:36;23.10;99.90
23063;DHT22;11699;43.704;10.430;2023-07-30T05:32:04;23.10;99.90
23063;DHT22;11699;43.704;10.430;2023-07-30T05:34:31;23.10;99.90
23063;DHT22;11699;43.704;10.430;2023-07-30T05:36:58;23.10;99.90
23063;DHT22;11699;43.704;10.430;2023-07-30T05:39:27;23.10;99.90
23063;DHT22;11699;43.704;10.430;2023-07-30T05:41:54;23.20;99.90
23063;DHT22;11699;43.704;10.430;2023-07-30T05:44:21;23.20;99.90
23063;DHT22;11699;43.704;10.430;2023-07-30T05:46:48;23.30;99.90
23063;DHT22;11699;43.704;10.430;2023-07-30T05:49:15;23.30;99.90
23063;DHT22;11699;43.704;10.430;2023-07-30T05:51:42;23.40;99.90
23063;DHT22;11699;43.704;10.430;2023-07-30T05:54:09;23.50;99.90
23063;DHT22;11699;43.704;10.430;2023-07-30T05:56:38;23.70;99.90
23063;DHT22;11699;43.704;10.430;2023-07-30T05:59:05;23.70;99.90
23063;DHT22;11699;43.704;10.430;2023-07-30T06:01:33;23.80;99.90
23063;DHT22;11699;43.704;10.430;2023-07-30T06:04:00;23.90;99.90
23063;DHT22;11699;43.704;10.430;2023-07-30T06:06:29;24.00;99.90
23063;DHT22;11699;43.704;10.430;2023-07-30T06:08:56;24.10;99.90
23063;DHT22;11699;43.704;10.430;2023-07-30T06:11:24;24.10;99.90
23063;DHT22;11699;43.704;10.430;2023-07-30T06:13:53;24.10;99.90
23063;DHT22;11699;43.704;10.430;2023-07-30T06:16:20;24.20;99.90
23063;DHT22;11699;43.704;10.430;2023-07-30T06:18:47;24.20;99.90
23063;DHT22;11699;43.704;10.430;2023-07-30T06:21:14;24.20;99.90
23063;DHT22;11699;43.704;10.430;2023-07-30T06:23:41;24.30;99.90
23063;DHT22;11699;43.704;10.430;2023-07-30T06:26:08;24.30;99.90
23063;DHT22;11699;43.704;10.430;2023-07-30T06:28:36;24.50;99.90
23063;DHT22;11699;43.704;10.430;2023-07-30T06:31:04;24.60;99.90
23063;DHT22;11699;43.704;10.430;2023-07-30T06:33:31;24.70;99.90
23063;DHT22;11699;43.704;10.430;2023-07-30T06:35:58;24.70;99.90
23063;DHT22;11699;43.704;10.430;2023-07-30T06:38:26;24.80;99.90
23063;DHT22;11699;43.704;10.430;2023-07-30T06:40:53;24.80;99.90
23063;DHT22;11699;43.704;10.430;2023-07-30T06:43:23;24.80;99.90
23063;DHT22;11699;43.704;10.430;2023-07-30T06:45:50;25.00;99.90
23063;DHT22;11699;43.704;10.430;2023-07-30T06:48:19;25.10;99.90
23063;DHT22;11699;43.704;10.430;2023-07-30T06:50:46;25.10;99.90
23063;DHT22;11699;43.704;10.430;2023-07-30T06:53:13;25.40;99.90
23063;DHT22;11699;43.704;10.430;2023-07-30T06:55:40;25.70;99.90
23063;DHT22;11699;43.704;10.430;2023-07-30T06:58:07;26.10;99.90
23063;DHT22;11699;43.704;10.430;2023-07-30T07:00:34;26.40;99.90
23063;DHT22;11699;43.704;10.430;2023-07-30T07:03:02;26.70;99.90
23063;DHT22;11699;43.704;10.430;2023-07-30T07:05:30;27.30;99.90
23063;DHT22;11699;43.704;10.430;2023-07-30T07:07:58;28.70;99.90
23063;DHT22;11699;43.704;10.430;2023-07-30T07:10:25;30.10;99.90
23063;DHT22;11699;43.704;10.430;2023-07-30T07:12:52;30.90;99.90
23063;DHT22;11699;43.704;10.430;2023-07-30T07:15:19;31.50;99.90
23063;DHT22;11699;43.704;10.430;2023-07-30T07:17:47;31.20;99.90
23063;DHT22;11699;43.704;10.430;2023-07-30T07:20:14;31.10;99.90
23063;DHT22;11699;43.704;10.430;2023-07-30T07:22:43;30.10;99.90
23063;DHT22;11699;43.704;10.430;2023-07-30T07:25:10;29.70;99.90
23063;DHT22;11699;43.704;10.430;2023-07-30T07:27:38;29.90;99.90
23063;DHT22;11699;43.704;10.430;2023-07-30T07:30:06;30.00;99.90
23063;DHT22;11699;43.704;10.430;2023-07-30T07:32:33;30.10;99.90
23063;DHT22;11699;43.704;10.430;2023-07-30T07:35:04;30.30;99.90
23063;DHT22;11699;43.704;10.430;2023-07-30T07:37:32;30.90;99.90
23063;DHT22;11699;43.704;10.430;2023-07-30T07:40:00;31.30;99.90
23063;DHT22;11699;43.704;10.430;2023-07-30T07:42:29;31.10;99.90
23063;DHT22;11699;43.704;10.430;2023-07-30T07:44:56;30.70;99.90
23063;DHT22;11699;43.704;10.430;2023-07-30T07:47:23;30.10;99.90
23063;DHT22;11699;43.704;10.430;2023-07-30T07:49:50;30.50;99.90
23063;DHT22;11699;43.704;10.430;2023-07-30T07:52:17;30.30;99.90
23063;DHT22;11699;43.704;10.430;2023-07-30T07:54:45;29.90;99.90
23063;DHT22;11699;43.704;10.430;2023-07-30T07:57:13;29.00;99.90
23063;DHT22;11699;43.704;10.430;2023-07-30T07:59:41;28.40;99.90
23063;DHT22;11699;43.704;10.430;2023-07-30T08:02:11;28.10;99.90
23063;DHT22;11699;43.704;10.430;2023-07-30T08:04:38;27.80;99.90
23063;DHT22;11699;43.704;10.430;2023-07-30T08:07:05;27.50;99.90
23063;DHT22;11699;43.704;10.430;2023-07-30T08:09:32;27.20;99.90
23063;DHT22;11699;43.704;10.430;2023-07-30T08:12:00;27.20;99.90
23063;DHT22;11699;43.704;10.430;2023-07-30T08:14:29;27.00;99.90
23063;DHT22;11699;43.704;10.430;2023-07-30T08:16:56;27.00;99.90
23063;DHT22;11699;43.704;10.430;2023-07-30T08:19:24;27.10;99.90
23063;DHT22;11699;43.704;10.430;2023-07-30T08:21:52;27.20;99.90
23063;DHT22;11699;43.704;10.430;2023-07-30T08:24:21;27.30;99.90
23063;DHT22;11699;43.704;10.430;2023-07-30T08:26:48;27.20;99.90
23063;DHT22;11699;43.704;10.430;2023-07-30T08:29:15;27.40;99.90
23063;DHT22;11699;43.704;10.430;2023-07-30T08:31:44;27.80;99.90
23063;DHT22;11699;43.704;10.430;2023-07-30T08:34:11;28.80;99.90
23063;DHT22;11699;43.704;10.430;2023-07-30T08:36:38;29.10;99.90
23063;DHT22;11699;43.704;10.430;2023-07-30T08:39:05;29.20;99.90
23063;DHT22;11699;43.704;10.430;2023-07-30T08:41:33;29.10;99.90
23063;DHT22;11699;43.704;10.430;2023-07-30T08:44:00;29.10;99.90
23063;DHT22;11699;43.704;10.430;2023-07-30T08:46:27;29.10;99.90
23063;DHT22;11699;43.704;10.430;2023-07-30T08:48:56;29.30;99.90
23063;DHT22;11699;43.704;10.430;2023-07-30T08:51:25;29.10;99.90
23063;DHT22;11699;43.704;10.430;2023-07-30T08:53:53;29.00;99.90
23063;DHT22;11699;43.704;10.430;2023-07-30T08:56:21;29.30;99.90
23063;DHT22;11699;43.704;10.430;2023-07-30T08:58:50;29.50;99.90
23063;DHT22;11699;43.704;10.430;2023-07-30T09:01:20;29.30;99.90
23063;DHT22;11699;43.704;10.430;2023-07-30T09:03:48;29.10;99.90
23063;DHT22;11699;43.704;10.430;2023-07-30T09:06:18;29.30;99.90
23063;DHT22;11699;43.704;10.430;2023-07-30T09:08:45;29.50;99.90
23063;DHT22;11699;43.704;10.430;2023-07-30T09:11:12;29.30;99.90
23063;DHT22;11699;43.704;10.430;2023-07-30T09:13:40;29.10;99.90
23063;DHT22;11699;43.704;10.430;2023-07-30T09:16:09;29.20;99.90
23063;DHT22;11699;43.704;10.430;2023-07-30T09:18:40;29.10;99.90
23063;DHT22;11699;43.704;10.430;2023-07-30T09:21:09;29.00;99.90
23063;DHT22;11699;43.704;10.430;2023-07-30T09:23:50;28.90;99.90
23063;DHT22;11699;43.704;10.430;2023-07-30T09:26:17;28.70;99.90
23063;DHT22;11699;43.704;10.430;2023-07-30T09:28:45;28.10;99.90
23063;DHT22;11699;43.704;10.430;2023-07-30T09:31:12;28.00;99.90
23063;DHT22;11699;43.704;10.430;2023-07-30T09:33:41;27.90;99.90
23063;DHT22;11699;43.704;10.430;2023-07-30T09:36:08;28.10;99.90
23063;DHT22;11699;43.704;10.430;2023-07-30T09:38:39;28.20;99.90
23063;DHT22;11699;43.704;10.430;2023-07-30T09:41:08;28.50;99.90
23063;DHT22;11699;43.704;10.430;2023-07-30T09:43:36;28.60;99.90
23063;DHT22;11699;43.704;10.430;2023-07-30T09:46:06;29.30;99.90
23063;DHT22;11699;43.704;10.430;2023-07-30T09:48:34;29.90;99.90
23063;DHT22;11699;43.704;10.430;2023-07-30T09:51:03;31.00;99.90
23063;DHT22;11699;43.704;10.430;2023-07-30T09:53:32;31.10;99.90
23063;DHT22;11699;43.704;10.430;2023-07-30T09:56:01;31.10;99.90
23063;DHT22;11699;43.704;10.430;2023-07-30T09:58:30;30.90;99.90
23063;DHT22;11699;43.704;10.430;2023-07-30T10:00:58;31.30;99.90
23063;DHT22;11699;43.704;10.430;2023-07-30T10:03:26;31.70;99.90
23063;DHT22;11699;43.704;10.430;2023-07-30T10:05:58;31.10;99.90
23063;DHT22;11699;43.704;10.430;2023-07-30T10:08:30;31.00;99.90
23063;DHT22;11699;43.704;10.430;2023-07-30T10:10:59;30.80;99.90
23063;DHT22;11699;43.704;10.430;2023-07-30T10:13:29;30.20;99.90
23063;DHT22;11699;43.704;10.430;2023-07-30T10:15:57;30.00;99.90
23063;DHT22;11699;43.704;10.430;2023-07-30T10:18:33;29.80;99.90
23063;DHT22;11699;43.704;10.430;2023-07-30T10:21:01;29.60;99.90
23063;DHT22;11699;43.704;10.430;2023-07-30T10:23:29;29.20;99.90
23063;DHT22;11699;43.704;10.430;2023-07-30T10:25:59;29.60;99.90
23063;DHT22;11699;43.704;10.430;2023-07-30T10:28:37;29.90;99.90
23063;DHT22;11699;43.704;10.430;2023-07-30T10:31:09;30.40;99.90
23063;DHT22;11699;43.704;10.430;2023-07-30T10:33:47;30.60;99.90
23063;DHT22;11699;43.704;10.430;2023-07-30T10:36:17;30.50;99.90
23063;DHT22;11699;43.704;10.430;2023-07-30T10:38:44;30.50;99.90
23063;DHT22;11699;43.704;10.430;2023-07-30T10:41:13;30.50;99.90
23063;DHT22;11699;43.704;10.430;2023-07-30T10:43:46;30.90;99.90
23063;DHT22;11699;43.704;10.430;2023-07-30T10:46:16;31.40;99.90
23063;DHT22;11699;43.704;10.430;2023-07-30T10:48:45;31.50;99.90
23063;DHT22;11699;43.704;10.430;2023-07-30T10:51:15;31.70;99.90
23063;DHT22;11699;43.704;10.430;2023-07-30T10:53:42;31.30;99.90
23063;DHT22;11699;43.704;10.430;2023-07-30T10:56:10;31.10;99.90
23063;DHT22;11699;43.704;10.430;2023-07-30T10:58:38;30.50;99.90
23063;DHT22;11699;43.704;10.430;2023-07-30T11:01:08;30.20;99.90
23063;DHT22;11699;43.704;10.430;2023-07-30T11:03:35;29.90;99.90
23063;DHT22;11699;43.704;10.430;2023-07-30T11:06:03;29.90;99.90
23063;DHT22;11699;43.704;10.430;2023-07-30T11:08:34;30.30;99.90
23063;DHT22;11699;43.704;10.430;2023-07-30T11:11:02;30.60;99.90
23063;DHT22;11699;43.704;10.430;2023-07-30T11:13:29;30.90;99.90
23063;DHT22;11699;43.704;10.430;2023-07-30T11:16:01;30.80;99.90
23063;DHT22;11699;43.704;10.430;2023-07-30T11:18:32;31.10;99.90
23063;DHT22;11699;43.704;10.430;2023-07-30T11:21:03;31.30;99.90
23063;DHT22;11699;43.704;10.430;2023-07-30T11:23:32;31.70;99.90
23063;DHT22;11699;43.704;10.430;2023-07-30T11:26:01;32.20;99.90
23063;DHT22;11699;43.704;10.430;2023-07-30T11:28:29;32.90;99.90
23063;DHT22;11699;43.704;10.430;2023-07-30T11:31:00;32.80;99.90
23063;DHT22;11699;43.704;10.430;2023-07-30T11:33:28;33.00;99.90
23063;DHT22;11699;43.704;10.430;2023-07-30T11:35:57;32.90;99.90
23063;DHT22;11699;43.704;10.430;2023-07-30T11:38:26;31.90;99.90
23063;DHT22;11699;43.704;10.430;2023-07-30T11:40:54;32.20;99.90
23063;DHT22;11699;43.704;10.430;2023-07-30T11:43:22;32.80;99.90
23063;DHT22;11699;43.704;10.430;2023-07-30T11:45:50;32.80;99.90
23063;DHT22;11699;43.704;10.430;2023-07-30T11:48:33;33.00;99.90
23063;DHT22;11699;43.704;10.430;2023-07-30T11:51:03;32.70;99.90
23063;DHT22;11699;43.704;10.430;2023-07-30T11:53:46;32.10;99.90
23063;DHT22;11699;43.704;10.430;2023-07-30T11:56:19;31.00;99.90
23063;DHT22;11699;43.704;10.430;2023-07-30T11:58:48;31.10;99.90
23063;DHT22;11699;43.704;10.430;2023-07-30T12:01:16;31.80;99.90
23063;DHT22;11699;43.704;10.430;2023-07-30T12:03:43;32.50;99.90
23063;DHT22;11699;43.704;10.430;2023-07-30T12:06:12;32.80;99.90
23063;DHT22;11699;43.704;10.430;2023-07-30T12:08:40;33.10;99.90
23063;DHT22;11699;43.704;10.430;2023-07-30T12:11:08;32.20;99.90
23063;DHT22;11699;43.704;10.430;2023-07-30T12:13:43;32.80;99.90
23063;DHT22;11699;43.704;10.430;2023-07-30T12:16:11;33.20;99.90
23063;DHT22;11699;43.704;10.430;2023-07-30T12:18:39;33.10;99.90
23063;DHT22;11699;43.704;10.430;2023-07-30T12:21:07;33.00;99.90
23063;DHT22;11699;43.704;10.430;2023-07-30T12:23:38;33.00;99.90
23063;DHT22;11699;43.704;10.430;2023-07-30T12:26:05;33.20;99.90
23063;DHT22;11699;43.704;10.430;2023-07-30T12:28:32;33.40;99.90
23063;DHT22;11699;43.704;10.430;2023-07-30T12:31:00;33.10;99.90
23063;DHT22;11699;43.704;10.430;2023-07-30T12:33:27;33.30;99.90
23063;DHT22;11699;43.704;10.430;2023-07-30T12:35:54;33.30;99.90
23063;DHT22;11699;43.704;10.430;2023-07-30T12:38:22;33.10;99.90
23063;DHT22;11699;43.704;10.430;2023-07-30T12:40:50;32.80;99.90
23063;DHT22;11699;43.704;10.430;2023-07-30T12:43:17;32.80;99.90
23063;DHT22;11699;43.704;10.430;2023-07-30T12:45:47;33.00;99.90
23063;DHT22;11699;43.704;10.430;2023-07-30T12:48:14;32.80;99.90
23063;DHT22;11699;43.704;10.430;2023-07-30T12:50:41;33.20;99.90
23063;DHT22;11699;43.704;10.430;2023-07-30T12:53:08;33.50;99.90
23063;DHT22;11699;43.704;10.430;2023-07-30T12:55:35;33.90;99.90
23063;DHT22;11699;43.704;10.430;2023-07-30T12:58:05;34.20;99.90
23063;DHT22;11699;43.704;10.430;2023-07-30T13:00:33;34.00;99.90
23063;DHT22;11699;43.704;10.430;2023-07-30T13:03:01;33.20;99.90
23063;DHT22;11699;43.704;10.430;2023-07-30T13:05:28;32.80;99.90
23063;DHT22;11699;43.704;10.430;2023-07-30T13:07:55;32.20;99.90
23063;DHT22;11699;43.704;10.430;2023-07-30T13:10:23;31.70;99.90
23063;DHT22;11699;43.704;10.430;2023-07-30T13:12:50;31.90;99.90
23063;DHT22;11699;43.704;10.430;2023-07-30T13:15:18;31.80;99.90
23063;DHT22;11699;43.704;10.430;2023-07-30T13:17:46;32.30;99.90
23063;DHT22;11699;43.704;10.430;2023-07-30T13:20:13;32.40;99.90
23063;DHT22;11699;43.704;10.430;2023-07-30T13:22:40;32.40;99.90
23063;DHT22;11699;43.704;10.430;2023-07-30T13:25:07;32.00;99.90
23063;DHT22;11699;43.704;10.430;2023-07-30T13:27:34;31.50;99.90
23063;DHT22;11699;43.704;10.430;2023-07-30T13:30:01;31.40;99.90
23063;DHT22;11699;43.704;10.430;2023-07-30T13:32:30;31.60;99.90
23063;DHT22;11699;43.704;10.430;2023-07-30T13:34:57;31.50;99.90
23063;DHT22;11699;43.704;10.430;2023-07-30T13:37:24;32.00;99.90
23063;DHT22;11699;43.704;10.430;2023-07-30T13:39:52;32.20;99.90
23063;DHT22;11699;43.704;10.430;2023-07-30T13:42:19;31.90;99.90
23063;DHT22;11699;43.704;10.430;2023-07-30T13:44:46;31.60;99.90
23063;DHT22;11699;43.704;10.430;2023-07-30T13:47:13;31.40;99.90
23063;DHT22;11699;43.704;10.430;2023-07-30T13:49:41;31.50;99.90
23063;DHT22;11699;43.704;10.430;2023-07-30T13:52:08;32.00;99.90
23063;DHT22;11699;43.704;10.430;2023-07-30T13:54:36;32.40;99.90
23063;DHT22;11699;43.704;10.430;2023-07-30T13:57:03;32.20;99.90
23063;DHT22;11699;43.704;10.430;2023-07-30T13:59:31;32.30;99.90
23063;DHT22;11699;43.704;10.430;2023-07-30T14:01:58;32.20;99.90
23063;DHT22;11699;43.704;10.430;2023-07-30T14:04:25;32.00;99.90
23063;DHT22;11699;43.704;10.430;2023-07-30T14:06:54;32.00;99.90
23063;DHT22;11699;43.704;10.430;2023-07-30T14:09:21;32.10;99.90
23063;DHT22;11699;43.704;10.430;2023-07-30T14:11:50;31.60;99.90
23063;DHT22;11699;43.704;10.430;2023-07-30T14:14:17;31.50;99.90
23063;DHT22;11699;43.704;10.430;2023-07-30T14:16:46;30.90;99.90
23063;DHT22;11699;43.704;10.430;2023-07-30T14:19:13;30.60;99.90
23063;DHT22;11699;43.704;10.430;2023-07-30T14:21:41;30.10;99.90
23063;DHT22;11699;43.704;10.430;2023-07-30T14:24:10;30.20;99.90
23063;DHT22;11699;43.704;10.430;2023-07-30T14:26:38;30.20;99.90
23063;DHT22;11699;43.704;10.430;2023-07-30T14:29:05;30.10;99.90
23063;DHT22;11699;43.704;10.430;2023-07-30T14:31:33;30.30;99.90
23063;DHT22;11699;43.704;10.430;2023-07-30T14:34:00;30.70;99.90
23063;DHT22;11699;43.704;10.430;2023-07-30T14:36:27;30.70;99.90
23063;DHT22;11699;43.704;10.430;2023-07-30T14:38:54;30.70;99.90
23063;DHT22;11699;43.704;10.430;2023-07-30T14:41:22;30.70;99.90
23063;DHT22;11699;43.704;10.430;2023-07-30T14:43:49;30.60;99.90
23063;DHT22;11699;43.704;10.430;2023-07-30T14:46:16;30.10;99.90
23063;DHT22;11699;43.704;10.430;2023-07-30T14:48:43;29.80;99.90
23063;DHT22;11699;43.704;10.430;2023-07-30T14:51:10;29.80;99.90
23063;DHT22;11699;43.704;10.430;2023-07-30T14:53:37;30.00;99.90
23063;DHT22;11699;43.704;10.430;2023-07-30T14:56:04;30.10;99.90
23063;DHT22;11699;43.704;10.430;2023-07-30T14:58:33;30.10;99.90
23063;DHT22;11699;43.704;10.430;2023-07-30T15:01:00;30.00;99.90
23063;DHT22;11699;43.704;10.430;2023-07-30T15:03:27;30.00;99.90
23063;DHT22;11699;43.704;10.430;2023-07-30T15:05:54;30.00;99.90
23063;DHT22;11699;43.704;10.430;2023-07-30T15:08:23;30.10;99.90
23063;DHT22;11699;43.704;10.430;2023-07-30T15:10:50;30.20;99.90
23063;DHT22;11699;43.704;10.430;2023-07-30T15:13:17;30.20;99.90
23063;DHT22;11699;43.704;10.430;2023-07-30T15:15:46;30.00;99.90
23063;DHT22;11699;43.704;10.430;2023-07-30T15:18:13;30.00;99.90
23063;DHT22;11699;43.704;10.430;2023-07-30T15:20:40;30.00;99.90